createdAt,value
2023-02-11T00:00:09.349Z,-2.50
2023-02-11T00:02:42.602Z,-2.50
2023-02-11T00:05:15.586Z,-2.60
2023-02-11T00:07:42.564Z,-2.70
2023-02-11T00:10:09.737Z,-2.60
2023-02-11T00:12:43.644Z,-2.60
2023-02-11T00:15:10.872Z,-2.50
2023-02-11T00:17:44.631Z,-2.60
2023-02-11T00:20:11.585Z,-2.60
2023-02-11T00:22:44.625Z,-2.80
2023-02-11T00:25:11.551Z,-2.70
2023-02-11T00:27:52.638Z,-2.80
2023-02-11T00:30:19.629Z,-2.80
2023-02-11T00:32:52.600Z,-2.90
2023-02-11T00:35:19.456Z,-2.90
2023-02-11T00:38:00.640Z,-2.80
2023-02-11T00:40:27.547Z,-2.70
2023-02-11T00:43:00.606Z,-2.70
2023-02-11T00:45:33.590Z,-2.70
2023-02-11T00:48:06.660Z,-2.70
2023-02-11T00:50:33.574Z,-2.60
2023-02-11T00:53:06.634Z,-2.70
2023-02-11T00:55:33.549Z,-2.70
2023-02-11T00:58:00.385Z,-2.70
2023-02-11T01:00:34.614Z,-2.80
2023-02-11T01:03:01.473Z,-2.90
2023-02-11T01:05:28.404Z,-3.00
2023-02-11T01:08:01.648Z,-3.00
2023-02-11T01:10:28.696Z,-3.10
2023-02-11T01:13:02.603Z,-3.20
2023-02-11T01:15:29.696Z,-3.20
2023-02-11T01:18:02.628Z,-3.20
2023-02-11T01:20:35.625Z,-3.20
2023-02-11T01:23:08.667Z,-3.30
2023-02-11T01:25:35.528Z,-3.30
2023-02-11T01:28:08.605Z,-3.30
2023-02-11T01:30:35.557Z,-3.30
2023-02-11T01:33:08.656Z,-3.30
2023-02-11T01:35:41.617Z,-3.40
2023-02-11T01:38:16.664Z,-3.40
2023-02-11T01:41:01.679Z,-3.50
2023-02-11T01:43:38.673Z,-3.50
2023-02-11T01:46:23.759Z,-3.60
2023-02-11T01:49:09.686Z,-3.60
2023-02-11T01:51:43.991Z,-3.60
2023-02-11T01:54:19.665Z,-3.50
2023-02-11T01:56:49.450Z,-3.40
2023-02-11T01:59:30.653Z,-3.50
2023-02-11T02:02:00.241Z,-3.50
2023-02-11T02:04:28.936Z,-3.50
2023-02-11T02:07:06.611Z,-3.50
2023-02-11T02:09:40.263Z,-3.50
2023-02-11T02:12:13.632Z,-3.50
2023-02-11T02:14:41.175Z,-3.50
2023-02-11T02:17:25.673Z,-3.50
2023-02-11T02:20:32.682Z,-3.50
2023-02-11T02:23:42.566Z,-3.50
2023-02-11T02:26:36.683Z,-3.50
2023-02-11T02:29:19.393Z,-3.70
2023-02-11T02:32:24.687Z,-3.80
2023-02-11T02:34:58.787Z,-3.70
2023-02-11T02:37:42.652Z,-3.70
2023-02-11T02:40:17.268Z,-3.80
2023-02-11T02:42:50.661Z,-3.70
2023-02-11T02:45:17.568Z,-3.80
2023-02-11T02:47:44.473Z,-3.80
2023-02-11T02:50:17.673Z,-3.90
2023-02-11T02:53:21.893Z,-3.90
2023-02-11T02:56:22.702Z,-4.00
2023-02-11T02:59:17.687Z,-4.10
2023-02-11T03:01:53.684Z,-4.10
2023-02-11T03:04:53.701Z,-4.00
2023-02-11T03:07:49.662Z,-4.00
2023-02-11T03:10:54.683Z,-4.00
2023-02-11T03:13:33.769Z,-3.90
2023-02-11T03:16:13.700Z,-3.80
2023-02-11T03:18:43.822Z,-3.90
2023-02-11T03:21:17.648Z,-3.90
2023-02-11T03:23:59.688Z,-3.90
2023-02-11T03:26:40.560Z,-4.00
2023-02-11T03:29:59.665Z,-4.20
2023-02-11T03:32:29.269Z,-4.20
2023-02-11T03:35:14.688Z,-4.20
2023-02-11T03:38:18.723Z,-4.10
2023-02-11T03:40:45.688Z,-4.00
2023-02-11T03:43:47.697Z,-4.10
2023-02-11T03:46:22.747Z,-3.90
2023-02-11T03:48:52.595Z,-3.80
2023-02-11T03:51:26.678Z,-3.80
2023-02-11T03:53:55.458Z,-3.80
2023-02-11T03:56:25.247Z,-3.80
2023-02-11T03:58:58.707Z,-3.80
2023-02-11T04:01:25.599Z,-3.70
2023-02-11T04:03:58.719Z,-3.80
2023-02-11T04:06:25.653Z,-3.70
2023-02-11T04:08:58.657Z,-3.70
2023-02-11T04:11:28.817Z,-3.60
2023-02-11T04:14:02.662Z,-3.60
2023-02-11T04:16:29.657Z,-3.60
2023-02-11T04:18:57.351Z,-3.70
2023-02-11T04:21:30.696Z,-3.80
2023-02-11T04:23:57.559Z,-3.70
2023-02-11T04:26:30.671Z,-3.70
2023-02-11T04:28:57.520Z,-3.80
2023-02-11T04:31:30.745Z,-3.80
2023-02-11T04:33:57.658Z,-3.80
2023-02-11T04:36:24.585Z,-4.00
2023-02-11T04:38:57.712Z,-4.10
2023-02-11T04:41:24.588Z,-4.20
2023-02-11T04:43:57.709Z,-4.20
2023-02-11T04:46:24.674Z,-4.30
2023-02-11T04:48:51.581Z,-4.20
2023-02-11T04:51:24.706Z,-4.20
2023-02-11T04:53:57.685Z,-4.20
2023-02-11T04:56:24.627Z,-4.30
2023-02-11T04:58:51.584Z,-4.20
2023-02-11T05:01:24.781Z,-4.20
2023-02-11T05:03:51.739Z,-4.40
2023-02-11T05:06:25.673Z,-4.30
2023-02-11T05:08:52.610Z,-4.30
2023-02-11T05:11:28.707Z,-4.20
2023-02-11T05:13:55.620Z,-4.30
2023-02-11T05:16:28.757Z,-4.30
2023-02-11T05:18:55.689Z,-4.30
2023-02-11T05:21:29.718Z,-4.20
2023-02-11T05:23:56.622Z,-4.20
2023-02-11T05:26:23.473Z,-4.20
2023-02-11T05:28:56.805Z,-4.20
2023-02-11T05:31:23.678Z,-4.20
2023-02-11T05:33:50.581Z,-4.20
2023-02-11T05:36:23.748Z,-4.10
2023-02-11T05:38:50.664Z,-4.20
2023-02-11T05:41:23.714Z,-4.20
2023-02-11T05:43:50.658Z,-4.30
2023-02-11T05:46:24.783Z,-4.30
2023-02-11T05:48:57.764Z,-4.30
2023-02-11T05:51:24.669Z,-4.30
2023-02-11T05:53:57.702Z,-4.20
2023-02-11T05:56:24.580Z,-4.30
2023-02-11T05:58:57.692Z,-4.30
2023-02-11T06:01:24.550Z,-4.20
2023-02-11T06:03:57.838Z,-4.30
2023-02-11T06:06:25.418Z,-4.40
2023-02-11T06:08:52.332Z,-4.50
2023-02-11T06:11:25.753Z,-4.50
2023-02-11T06:13:52.794Z,-4.50
2023-02-11T06:16:25.859Z,-4.50
2023-02-11T06:18:52.868Z,-4.40
2023-02-11T06:21:43.252Z,-4.30
2023-02-11T06:24:12.022Z,-4.20
2023-02-11T06:26:45.842Z,-4.00
2023-02-11T06:29:19.753Z,-4.00
2023-02-11T06:31:46.921Z,-4.10
2023-02-11T06:34:20.786Z,-4.10
2023-02-11T06:36:47.788Z,-4.10
2023-02-11T06:39:21.822Z,-4.20
2023-02-11T06:41:48.807Z,-4.10
2023-02-11T06:44:21.711Z,-4.20
2023-02-11T06:46:48.752Z,-4.20
2023-02-11T06:49:21.726Z,-4.30
2023-02-11T06:51:48.784Z,-4.20
2023-02-11T06:54:15.810Z,-4.10
2023-02-11T06:56:49.923Z,-4.20
2023-02-11T06:59:18.521Z,-4.00
2023-02-11T07:01:51.847Z,-3.90
2023-02-11T07:04:18.952Z,-3.80
2023-02-11T07:06:52.766Z,-3.80
2023-02-11T07:09:25.763Z,-3.80
2023-02-11T07:11:52.700Z,-3.90
2023-02-11T07:14:25.869Z,-3.80
2023-02-11T07:16:59.776Z,-3.50
2023-02-11T07:19:26.691Z,-3.50
2023-02-11T07:21:53.641Z,-3.30
2023-02-11T07:24:26.784Z,-3.20
2023-02-11T07:26:54.378Z,-3.10
2023-02-11T07:29:27.856Z,-3.00
2023-02-11T07:32:01.886Z,-2.90
2023-02-11T07:34:28.970Z,-2.80
2023-02-11T07:36:55.953Z,-2.80
2023-02-11T07:39:29.779Z,-2.60
2023-02-11T07:42:02.772Z,-2.60
2023-02-11T07:44:29.790Z,-2.70
2023-02-11T07:47:03.856Z,-2.50
2023-02-11T07:49:37.848Z,-2.10
2023-02-11T07:52:04.985Z,-1.90
2023-02-11T07:54:32.094Z,-1.90
2023-02-11T07:57:05.844Z,-1.10
2023-02-11T07:59:32.847Z,1.30
2023-02-11T08:01:59.909Z,2.10
2023-02-11T08:04:33.825Z,1.90
2023-02-11T08:07:00.889Z,3.30
2023-02-11T08:09:34.798Z,4.90
2023-02-11T08:12:01.784Z,5.90
2023-02-11T08:14:34.783Z,5.90
2023-02-11T08:17:01.867Z,7.80
2023-02-11T08:19:35.798Z,7.80
2023-02-11T08:22:08.748Z,8.40
2023-02-11T08:24:35.701Z,8.50
2023-02-11T08:27:08.828Z,9.00
2023-02-11T08:29:42.016Z,9.40
2023-02-11T08:32:09.186Z,9.30
2023-02-11T08:34:36.150Z,9.90
2023-02-11T08:37:09.812Z,9.80
2023-02-11T08:39:36.718Z,10.20
2023-02-11T08:42:09.795Z,10.40
2023-02-11T08:44:36.836Z,10.10
2023-02-11T08:47:10.853Z,10.30
2023-02-11T08:49:44.798Z,10.20
2023-02-11T08:52:11.933Z,10.60
2023-02-11T08:54:45.862Z,10.80
2023-02-11T08:57:12.903Z,10.40
2023-02-11T08:59:46.844Z,9.80
2023-02-11T09:02:21.305Z,10.10
2023-02-11T09:04:48.327Z,9.60
2023-02-11T09:07:21.824Z,9.80
2023-02-11T09:09:48.907Z,9.60
2023-02-11T09:12:22.801Z,10.10
2023-02-11T09:14:55.872Z,9.70
2023-02-11T09:17:22.812Z,9.30
2023-02-11T09:19:56.831Z,9.40
2023-02-11T09:22:29.822Z,9.00
2023-02-11T09:24:56.989Z,8.20
2023-02-11T09:27:30.814Z,7.40
2023-02-11T09:29:57.764Z,7.00
2023-02-11T09:32:30.887Z,7.00
2023-02-11T09:34:57.858Z,7.00
2023-02-11T09:37:24.780Z,6.90
2023-02-11T09:39:57.848Z,6.80
2023-02-11T09:42:38.380Z,6.70
2023-02-11T09:45:16.819Z,6.70
2023-02-11T09:48:00.878Z,6.50
2023-02-11T09:50:43.895Z,6.60
2023-02-11T09:53:34.520Z,6.80
2023-02-11T09:56:09.910Z,7.10
2023-02-11T09:58:42.019Z,7.30
2023-02-11T10:01:52.950Z,7.80
2023-02-11T10:04:43.390Z,8.00
2023-02-11T10:07:34.867Z,8.30
2023-02-11T10:10:41.037Z,8.20
2023-02-11T10:13:44.864Z,8.00
2023-02-11T10:17:09.012Z,8.30
2023-02-11T10:20:14.606Z,8.70
2023-02-11T10:22:54.902Z,8.80
2023-02-11T10:25:34.874Z,8.90
2023-02-11T10:28:17.050Z,8.90
2023-02-11T10:31:08.965Z,9.10
2023-02-11T10:33:47.935Z,8.90
2023-02-11T10:36:22.868Z,8.90
2023-02-11T10:38:49.942Z,8.80
2023-02-11T10:41:30.882Z,8.70
2023-02-11T10:44:05.850Z,8.40
2023-02-11T10:46:34.890Z,8.20
2023-02-11T10:49:08.928Z,8.20
2023-02-11T10:51:42.839Z,8.20
2023-02-11T10:54:24.966Z,8.10
2023-02-11T10:56:58.856Z,8.10
2023-02-11T10:59:31.817Z,8.00
2023-02-11T11:02:08.058Z,8.10
2023-02-11T11:04:41.121Z,8.10
2023-02-11T11:07:39.956Z,8.20
2023-02-11T11:10:25.671Z,8.30
2023-02-11T11:12:58.924Z,8.40
2023-02-11T11:15:36.972Z,8.30
2023-02-11T11:18:23.196Z,8.60
2023-02-11T11:21:06.914Z,8.60
2023-02-11T11:23:36.568Z,8.60
2023-02-11T11:26:14.901Z,8.80
2023-02-11T11:29:02.568Z,9.00
2023-02-11T11:31:39.003Z,9.10
2023-02-11T11:34:32.073Z,9.20
2023-02-11T11:37:06.868Z,9.20
2023-02-11T11:39:34.247Z,9.30
2023-02-11T11:42:09.987Z,9.50
2023-02-11T11:44:37.540Z,9.50
2023-02-11T11:47:19.911Z,9.20
2023-02-11T11:50:24.252Z,9.30
2023-02-11T11:53:17.864Z,9.30
2023-02-11T11:55:59.949Z,9.50
2023-02-11T11:58:28.736Z,9.50
2023-02-11T12:01:40.952Z,9.60
2023-02-11T12:05:01.943Z,9.80
2023-02-11T12:07:54.817Z,10.10
2023-02-11T12:10:42.870Z,10.00
2023-02-11T12:13:49.190Z,10.20
2023-02-11T12:17:02.951Z,10.10
2023-02-11T12:20:17.004Z,10.10
2023-02-11T12:23:34.942Z,10.20
2023-02-11T12:26:19.641Z,10.20
2023-02-11T12:29:38.940Z,10.30
2023-02-11T12:33:00.797Z,10.30
2023-02-11T12:35:38.912Z,10.50
2023-02-11T12:38:43.771Z,10.50
2023-02-11T12:41:44.911Z,10.50
2023-02-11T12:44:52.982Z,10.50
2023-02-11T12:47:54.147Z,10.80
2023-02-11T12:50:50.231Z,10.80
2023-02-11T12:53:32.851Z,10.90
2023-02-11T12:56:31.148Z,11.00
2023-02-11T12:58:59.229Z,11.10
2023-02-11T13:01:46.943Z,11.20
2023-02-11T13:04:42.057Z,11.10
2023-02-11T13:07:28.051Z,11.20
2023-02-11T13:10:19.974Z,11.30
2023-02-11T13:12:47.145Z,11.40
2023-02-11T13:15:21.981Z,11.50
2023-02-11T13:17:59.163Z,11.40
2023-02-11T13:21:08.911Z,11.60
2023-02-11T13:24:01.958Z,11.60
2023-02-11T13:26:39.938Z,11.80
2023-02-11T13:29:28.937Z,11.90
2023-02-11T13:32:10.652Z,11.70
2023-02-11T13:34:49.964Z,11.80
2023-02-11T13:37:43.320Z,11.90
2023-02-11T13:40:26.945Z,11.90
2023-02-11T13:42:59.092Z,11.80
2023-02-11T13:45:48.026Z,11.70
2023-02-11T13:48:33.984Z,11.90
2023-02-11T13:51:09.183Z,12.00
2023-02-11T13:54:03.013Z,12.00
2023-02-11T13:56:35.096Z,12.00
2023-02-11T13:59:32.019Z,12.00
2023-02-11T14:02:20.920Z,11.90
2023-02-11T14:05:12.970Z,11.90
2023-02-11T14:07:45.977Z,11.90
2023-02-11T14:10:50.323Z,12.10
2023-02-11T14:13:35.957Z,12.20
2023-02-11T14:16:36.835Z,12.10
2023-02-11T14:19:05.203Z,12.20
2023-02-11T14:21:43.994Z,12.20
2023-02-11T14:24:10.850Z,12.10
2023-02-11T14:26:55.004Z,12.20
2023-02-11T14:30:08.048Z,12.10
2023-02-11T14:32:59.989Z,12.00
2023-02-11T14:35:58.357Z,12.00
2023-02-11T14:39:04.013Z,12.10
2023-02-11T14:41:48.991Z,12.00
2023-02-11T14:44:25.144Z,12.00
2023-02-11T14:46:58.991Z,12.00
2023-02-11T14:49:35.272Z,12.10
2023-02-11T14:52:35.968Z,12.00
2023-02-11T14:55:17.907Z,11.90
2023-02-11T14:57:51.013Z,11.80
2023-02-11T15:00:21.294Z,11.80
2023-02-11T15:02:55.040Z,11.80
2023-02-11T15:05:31.064Z,11.80
2023-02-11T15:08:02.325Z,11.80
2023-02-11T15:10:44.056Z,11.80
2023-02-11T15:13:18.281Z,11.90
2023-02-11T15:15:52.108Z,11.70
2023-02-11T15:18:21.481Z,11.70
2023-02-11T15:20:48.956Z,11.60
2023-02-11T15:23:33.086Z,11.60
2023-02-11T15:26:00.281Z,11.60
2023-02-11T15:28:36.150Z,11.70
2023-02-11T15:31:23.127Z,11.70
2023-02-11T15:33:51.082Z,11.70
2023-02-11T15:36:19.363Z,11.60
2023-02-11T15:38:53.072Z,11.50
2023-02-11T15:41:44.039Z,11.40
2023-02-11T15:44:31.352Z,11.40
2023-02-11T15:47:05.105Z,11.30
2023-02-11T15:49:39.063Z,11.30
2023-02-11T15:52:06.059Z,11.30
2023-02-11T15:54:40.049Z,11.20
2023-02-11T15:57:08.316Z,11.00
2023-02-11T15:59:46.041Z,11.00
2023-02-11T16:02:24.691Z,11.00
2023-02-11T16:05:04.029Z,10.90
2023-02-11T16:07:48.770Z,10.80
2023-02-11T16:10:37.043Z,10.60
2023-02-11T16:13:07.007Z,10.60
2023-02-11T16:15:40.054Z,10.50
2023-02-11T16:18:37.323Z,10.50
2023-02-11T16:21:14.098Z,10.30
2023-02-11T16:23:48.066Z,10.30
2023-02-11T16:26:36.371Z,10.30
2023-02-11T16:29:19.084Z,10.20
2023-02-11T16:31:47.453Z,10.10
2023-02-11T16:34:17.483Z,10.10
2023-02-11T16:36:51.081Z,10.00
2023-02-11T16:39:19.237Z,9.90
2023-02-11T16:41:53.114Z,9.80
2023-02-11T16:44:20.158Z,9.60
2023-02-11T16:46:47.270Z,9.30
2023-02-11T16:49:36.086Z,9.40
2023-02-11T16:52:14.133Z,9.30
2023-02-11T16:54:41.222Z,9.20
2023-02-11T16:57:22.271Z,9.00
2023-02-11T16:59:49.383Z,8.90
2023-02-11T17:02:27.149Z,8.70
2023-02-11T17:04:55.208Z,8.50
2023-02-11T17:07:29.068Z,8.40
2023-02-11T17:09:58.717Z,8.30
2023-02-11T17:12:25.759Z,8.20
2023-02-11T17:15:00.116Z,8.20
2023-02-11T17:17:27.151Z,8.00
2023-02-11T17:20:01.106Z,7.90
2023-02-11T17:22:35.173Z,7.80
2023-02-11T17:25:02.248Z,7.70
2023-02-11T17:27:36.071Z,7.60
2023-02-11T17:30:06.810Z,7.40
2023-02-11T17:32:40.154Z,7.30
2023-02-11T17:35:07.579Z,7.10
2023-02-11T17:37:47.224Z,7.10
2023-02-11T17:40:21.139Z,6.70
2023-02-11T17:42:55.190Z,6.80
2023-02-11T17:45:28.379Z,6.60
2023-02-11T17:48:02.172Z,6.60
2023-02-11T17:50:29.581Z,6.40
2023-02-11T17:52:56.875Z,6.30
2023-02-11T17:55:33.088Z,6.20
2023-02-11T17:58:08.130Z,6.10
2023-02-11T18:00:35.097Z,5.80
2023-02-11T18:03:09.124Z,5.80
2023-02-11T18:05:36.938Z,5.80
2023-02-11T18:08:14.087Z,5.50
2023-02-11T18:10:41.724Z,5.30
2023-02-11T18:13:08.649Z,5.10
2023-02-11T18:15:42.153Z,5.00
2023-02-11T18:18:09.276Z,4.80
2023-02-11T18:20:43.196Z,4.80
2023-02-11T18:23:10.919Z,4.70
2023-02-11T18:25:47.113Z,4.70
2023-02-11T18:28:14.177Z,4.70
2023-02-11T18:30:48.247Z,4.70
2023-02-11T18:33:15.336Z,4.60
2023-02-11T18:35:42.991Z,4.50
2023-02-11T18:38:17.151Z,4.40
2023-02-11T18:40:44.301Z,4.50
2023-02-11T18:43:18.148Z,4.60
2023-02-11T18:45:45.959Z,4.60
2023-02-11T18:48:19.118Z,4.70
2023-02-11T18:50:46.338Z,4.60
2023-02-11T18:53:13.931Z,4.70
2023-02-11T18:55:49.208Z,4.70
2023-02-11T18:58:16.332Z,4.70
2023-02-11T19:00:52.136Z,4.60
2023-02-11T19:03:19.190Z,4.40
2023-02-11T19:05:54.488Z,4.30
2023-02-11T19:08:28.179Z,4.30
2023-02-11T19:10:55.171Z,4.20
2023-02-11T19:13:22.110Z,4.20
2023-02-11T19:15:56.188Z,4.10
2023-02-11T19:18:23.299Z,4.10
2023-02-11T19:20:50.504Z,4.10
2023-02-11T19:23:24.143Z,4.10
2023-02-11T19:25:51.470Z,4.10
2023-02-11T19:28:25.163Z,4.00
2023-02-11T19:30:52.227Z,4.00
2023-02-11T19:33:26.185Z,3.80
2023-02-11T19:35:53.438Z,3.70
2023-02-11T19:38:27.138Z,3.50
2023-02-11T19:41:00.921Z,3.40
2023-02-11T19:43:35.253Z,3.20
2023-02-11T19:46:10.321Z,3.10
2023-02-11T19:48:44.280Z,2.90
2023-02-11T19:51:13.213Z,3.00
2023-02-11T19:53:40.472Z,2.80
2023-02-11T19:56:14.204Z,2.70
2023-02-11T19:58:48.125Z,2.60
2023-02-11T20:01:18.031Z,2.50
2023-02-11T20:03:51.166Z,2.40
2023-02-11T20:06:26.777Z,2.50
2023-02-11T20:09:05.264Z,2.60
2023-02-11T20:11:32.640Z,2.50
2023-02-11T20:13:59.790Z,2.50
2023-02-11T20:16:47.441Z,2.50
2023-02-11T20:19:27.205Z,2.50
2023-02-11T20:21:54.644Z,2.50
2023-02-11T20:24:22.130Z,2.50
2023-02-11T20:26:56.338Z,2.50
2023-02-11T20:29:23.733Z,2.40
2023-02-11T20:31:57.304Z,2.40
2023-02-11T20:34:24.502Z,2.30
2023-02-11T20:36:58.222Z,2.30
2023-02-11T20:39:25.549Z,2.30
2023-02-11T20:42:00.138Z,2.30
2023-02-11T20:44:27.486Z,2.20
2023-02-11T20:47:01.293Z,2.30
2023-02-11T20:49:28.847Z,2.00
2023-02-11T20:51:56.046Z,2.20
2023-02-11T20:54:30.291Z,2.20
2023-02-11T20:56:57.346Z,2.00
2023-02-11T20:59:31.211Z,2.00
2023-02-11T21:02:05.398Z,1.90
2023-02-11T21:04:39.239Z,1.90
2023-02-11T21:07:13.261Z,1.70
2023-02-11T21:09:47.220Z,1.50
2023-02-11T21:12:14.355Z,1.50
2023-02-11T21:14:48.179Z,1.30
2023-02-11T21:17:15.365Z,1.20
2023-02-11T21:19:49.215Z,1.10
2023-02-11T21:22:16.424Z,1.20
2023-02-11T21:24:50.239Z,1.20
2023-02-11T21:27:24.240Z,1.20
2023-02-11T21:29:54.662Z,1.10
2023-02-11T21:32:28.266Z,1.20
2023-02-11T21:35:02.522Z,1.20
2023-02-11T21:37:29.667Z,1.20
2023-02-11T21:40:03.259Z,1.10
2023-02-11T21:42:30.339Z,1.10
2023-02-11T21:45:04.363Z,1.10
2023-02-11T21:47:32.093Z,1.00
2023-02-11T21:50:05.260Z,1.00
2023-02-11T21:52:32.293Z,0.90
2023-02-11T21:54:59.432Z,0.90
2023-02-11T21:57:33.290Z,0.80
2023-02-11T22:00:00.356Z,0.90
2023-02-11T22:02:27.383Z,0.90
2023-02-11T22:05:01.339Z,0.80
2023-02-11T22:07:28.492Z,0.80
2023-02-11T22:10:02.306Z,0.60
2023-02-11T22:12:29.428Z,0.70
2023-02-11T22:15:03.253Z,0.80
2023-02-11T22:17:30.379Z,0.90
2023-02-11T22:19:57.570Z,0.90
2023-02-11T22:22:31.258Z,0.80
2023-02-11T22:25:05.340Z,0.60
2023-02-11T22:27:32.359Z,0.50
2023-02-11T22:30:06.247Z,0.40
2023-02-11T22:32:33.289Z,0.20
2023-02-11T22:35:07.258Z,0.10
2023-02-11T22:37:41.259Z,0.00
2023-02-11T22:40:08.938Z,-0.10
2023-02-11T22:42:35.974Z,0.00
2023-02-11T22:45:09.227Z,-0.10
2023-02-11T22:47:36.332Z,-0.10
2023-02-11T22:50:03.495Z,-0.10
2023-02-11T22:52:37.296Z,-0.10
2023-02-11T22:55:11.197Z,-0.10
2023-02-11T22:57:38.145Z,0.00
2023-02-11T23:00:13.248Z,0.00
2023-02-11T23:02:40.425Z,0.00
2023-02-11T23:05:14.313Z,0.00
2023-02-11T23:07:41.355Z,0.00
2023-02-11T23:10:16.255Z,0.00
2023-02-11T23:12:43.287Z,0.00
2023-02-11T23:15:17.247Z,0.00
2023-02-11T23:17:44.191Z,-0.10
2023-02-11T23:20:18.224Z,0.00
2023-02-11T23:22:45.228Z,0.10
2023-02-11T23:25:19.282Z,0.10
2023-02-11T23:27:46.380Z,0.10
2023-02-11T23:30:20.255Z,0.20
2023-02-11T23:32:47.393Z,0.20
2023-02-11T23:35:14.518Z,0.30
2023-02-11T23:37:48.267Z,0.30
2023-02-11T23:40:15.714Z,0.20
2023-02-11T23:42:49.264Z,0.20
2023-02-11T23:45:16.378Z,0.00
2023-02-11T23:47:50.283Z,0.00
2023-02-11T23:50:17.642Z,0.00
2023-02-11T23:52:44.714Z,0.00
2023-02-11T23:55:18.478Z,-0.20
2023-02-11T23:57:52.247Z,-0.40
